createdAt,value
2023-04-16T00:03:01.647Z,101127.56
2023-04-16T00:06:05.789Z,101132.34
2023-04-16T00:09:08.468Z,101137.00
2023-04-16T00:12:12.291Z,101118.31
2023-04-16T00:15:14.683Z,101120.97
2023-04-16T00:18:17.193Z,101142.13
2023-04-16T00:21:24.321Z,101144.56
2023-04-16T00:24:37.884Z,101154.13
2023-04-16T00:27:40.339Z,101157.50
2023-04-16T00:30:43.689Z,101149.66
2023-04-16T00:33:46.362Z,101147.94
2023-04-16T00:36:48.564Z,101149.81
2023-04-16T00:39:51.425Z,101158.41
2023-04-16T00:42:53.766Z,101145.13
2023-04-16T00:45:58.291Z,101147.84
2023-04-16T00:49:01.614Z,101162.53
2023-04-16T00:52:04.843Z,101147.84
2023-04-16T00:55:08.239Z,101143.75
2023-04-16T00:58:10.610Z,101149.47
2023-04-16T01:01:21.767Z,101143.75
2023-04-16T01:04:27.479Z,101162.00
2023-04-16T01:07:35.898Z,101158.00
2023-04-16T01:10:38.225Z,101140.78
2023-04-16T01:13:40.869Z,101161.56
2023-04-16T01:16:43.047Z,101137.25
2023-04-16T01:19:46.569Z,101150.09
2023-04-16T01:22:52.910Z,101161.72
2023-04-16T01:25:57.088Z,101147.59
2023-04-16T01:29:00.496Z,101163.84
2023-04-16T01:32:02.749Z,101159.25
2023-04-16T01:35:08.358Z,101152.25
2023-04-16T01:38:14.506Z,101146.75
2023-04-16T01:41:18.903Z,101157.28
2023-04-16T01:44:26.193Z,101142.78
2023-04-16T01:47:29.049Z,101149.47
2023-04-16T01:50:32.647Z,101131.59
2023-04-16T01:53:37.110Z,101160.97
2023-04-16T01:56:39.905Z,101145.06
2023-04-16T01:59:42.008Z,101154.03
2023-04-16T02:02:44.324Z,101146.69
2023-04-16T02:05:48.195Z,101156.03
2023-04-16T02:08:52.816Z,101141.41
2023-04-16T02:11:54.922Z,101159.41
2023-04-16T02:14:57.057Z,101160.88
2023-04-16T02:18:02.037Z,101163.81
2023-04-16T02:21:06.581Z,101167.44
2023-04-16T02:24:09.151Z,101166.41
2023-04-16T02:27:11.736Z,101165.34
2023-04-16T02:30:15.885Z,101158.63
2023-04-16T02:33:20.396Z,101150.53
2023-04-16T02:36:35.947Z,101154.00
2023-04-16T02:39:38.662Z,101168.22
2023-04-16T02:42:40.960Z,101168.44
2023-04-16T02:45:44.926Z,101157.03
2023-04-16T02:48:46.984Z,101170.69
2023-04-16T02:51:49.608Z,101169.19
2023-04-16T02:54:51.897Z,101164.69
2023-04-16T02:57:54.748Z,101172.84
2023-04-16T03:00:57.122Z,101164.22
2023-04-16T03:03:59.449Z,101177.22
2023-04-16T03:07:01.969Z,101165.78
2023-04-16T03:10:05.539Z,101169.22
2023-04-16T03:13:09.088Z,101177.22
2023-04-16T03:16:12.832Z,101178.06
2023-04-16T03:19:16.169Z,101196.50
2023-04-16T03:22:19.187Z,101170.38
2023-04-16T03:25:21.889Z,101193.97
2023-04-16T03:28:24.337Z,101193.66
2023-04-16T03:31:26.871Z,101187.22
2023-04-16T03:34:29.305Z,101190.94
2023-04-16T03:37:31.507Z,101191.97
2023-04-16T03:40:33.735Z,101196.69
2023-04-16T03:43:36.735Z,101206.97
2023-04-16T03:46:39.948Z,101208.81
2023-04-16T03:49:42.796Z,101205.66
2023-04-16T03:52:45.277Z,101211.72
2023-04-16T03:55:51.427Z,101201.91
2023-04-16T03:58:55.124Z,101210.41
2023-04-16T04:01:57.352Z,101215.66
2023-04-16T04:05:00.505Z,101224.28
2023-04-16T04:08:02.843Z,101212.31
2023-04-16T04:11:06.205Z,101211.34
2023-04-16T04:14:09.816Z,101212.38
2023-04-16T04:17:12.551Z,101208.22
2023-04-16T04:20:17.251Z,101213.06
2023-04-16T04:23:22.757Z,101212.03
2023-04-16T04:26:25.586Z,101204.47
2023-04-16T04:29:27.902Z,101213.13
2023-04-16T04:32:30.062Z,101210.13
2023-04-16T04:35:32.068Z,101215.22
2023-04-16T04:38:35.092Z,101211.94
2023-04-16T04:41:39.047Z,101215.13
2023-04-16T04:44:41.858Z,101231.03
2023-04-16T04:47:44.541Z,101222.31
2023-04-16T04:50:46.910Z,101230.91
2023-04-16T04:53:50.673Z,101230.84
2023-04-16T04:56:52.772Z,101216.56
2023-04-16T04:59:55.683Z,101222.16
2023-04-16T05:02:59.106Z,101217.72
2023-04-16T05:06:01.581Z,101225.69
2023-04-16T05:09:03.775Z,101226.50
2023-04-16T05:12:06.955Z,101229.41
2023-04-16T05:15:10.917Z,101232.94
2023-04-16T05:18:12.871Z,101227.81
2023-04-16T05:21:14.955Z,101223.09
2023-04-16T05:24:17.059Z,101228.13
2023-04-16T05:27:19.332Z,101215.94
2023-04-16T05:30:21.418Z,101218.91
2023-04-16T05:33:23.540Z,101223.75
2023-04-16T05:36:25.976Z,101221.84
2023-04-16T05:39:28.256Z,101229.63
2023-04-16T05:42:30.518Z,101228.53
2023-04-16T05:45:33.750Z,101233.31
2023-04-16T05:48:35.933Z,101235.13
2023-04-16T05:51:38.288Z,101235.13
2023-04-16T05:54:42.682Z,101241.63
2023-04-16T05:57:44.748Z,101240.53
2023-04-16T06:00:47.047Z,101251.41
2023-04-16T06:03:56.011Z,101246.94
2023-04-16T06:06:58.235Z,101255.78
2023-04-16T06:10:06.650Z,101249.88
2023-04-16T06:13:09.365Z,101256.31
2023-04-16T06:16:11.570Z,101265.72
2023-04-16T06:19:17.998Z,101258.94
2023-04-16T06:22:23.715Z,101287.44
2023-04-16T06:25:40.129Z,101261.63
2023-04-16T06:29:09.900Z,101274.84
2023-04-16T06:32:12.521Z,101278.44
2023-04-16T06:35:15.082Z,101262.78
2023-04-16T06:38:17.252Z,101264.47
2023-04-16T06:41:22.836Z,101261.06
2023-04-16T06:44:25.116Z,101252.41
2023-04-16T06:47:27.945Z,101252.22
2023-04-16T06:50:30.157Z,101260.88
2023-04-16T06:53:32.408Z,101257.75
2023-04-16T06:56:35.931Z,101256.06
2023-04-16T06:59:39.026Z,101249.97
2023-04-16T07:02:42.780Z,101263.38
2023-04-16T07:05:44.833Z,101273.47
2023-04-16T07:08:46.921Z,101271.13
2023-04-16T07:11:49.194Z,101272.56
2023-04-16T07:14:51.377Z,101283.63
2023-04-16T07:17:53.476Z,101283.63
2023-04-16T07:20:55.778Z,101275.44
2023-04-16T07:23:57.999Z,101258.47
2023-04-16T07:27:00.906Z,101271.22
2023-04-16T07:30:04.355Z,101268.31
2023-04-16T07:33:06.708Z,101259.91
2023-04-16T07:36:10.135Z,101267.03
2023-04-16T07:39:13.349Z,101258.00
2023-04-16T07:42:15.589Z,101266.03
2023-04-16T07:45:18.806Z,101265.63
2023-04-16T07:48:22.522Z,101270.88
2023-04-16T07:51:24.617Z,101273.59
2023-04-16T07:54:28.942Z,101271.78
2023-04-16T07:57:32.214Z,101278.44
2023-04-16T08:00:34.741Z,101289.53
2023-04-16T08:03:37.127Z,101285.53
2023-04-16T08:06:39.781Z,101290.13
2023-04-16T08:09:54.917Z,101281.47
2023-04-16T08:12:57.282Z,101278.34
2023-04-16T08:15:59.513Z,101275.69
2023-04-16T08:19:02.003Z,101272.56
2023-04-16T08:22:04.333Z,101276.56
2023-04-16T08:25:07.058Z,101276.81
2023-04-16T08:28:10.188Z,101279.75
2023-04-16T08:31:14.556Z,101275.72
2023-04-16T08:34:18.070Z,101266.09
2023-04-16T08:37:20.195Z,101280.75
2023-04-16T08:40:32.593Z,101278.34
2023-04-16T08:43:38.346Z,101275.25
2023-04-16T08:46:41.917Z,101280.50
2023-04-16T08:49:46.203Z,101272.88
2023-04-16T08:53:08.155Z,101283.59
2023-04-16T08:56:11.989Z,101296.44
2023-04-16T08:59:14.351Z,101292.69
2023-04-16T09:02:17.109Z,101293.53
2023-04-16T09:05:22.879Z,101300.66
2023-04-16T09:08:32.749Z,101289.31
2023-04-16T09:11:35.001Z,101294.22
2023-04-16T09:14:38.778Z,101294.38
2023-04-16T09:17:42.335Z,101293.06
2023-04-16T09:20:44.827Z,101310.06
2023-04-16T09:23:48.189Z,101298.53
2023-04-16T09:26:52.817Z,101313.47
2023-04-16T09:29:55.122Z,101316.25
2023-04-16T09:33:16.830Z,101313.50
2023-04-16T09:36:23.771Z,101321.28
2023-04-16T09:39:26.488Z,101321.47
2023-04-16T09:42:30.995Z,101326.91
2023-04-16T09:45:34.732Z,101330.41
2023-04-16T09:48:36.799Z,101331.47
2023-04-16T09:51:43.110Z,101324.50
2023-04-16T09:54:48.164Z,101332.53
2023-04-16T09:57:59.023Z,101310.50
2023-04-16T10:01:07.383Z,101308.63
2023-04-16T10:04:09.572Z,101309.47
2023-04-16T10:07:12.657Z,101314.09
2023-04-16T10:10:15.878Z,101312.03
2023-04-16T10:13:20.727Z,101317.75
2023-04-16T10:16:23.526Z,101314.25
2023-04-16T10:19:27.220Z,101318.25
2023-04-16T10:22:29.507Z,101315.91
2023-04-16T10:25:32.803Z,101318.84
2023-04-16T10:28:37.040Z,101307.38
2023-04-16T10:31:40.807Z,101309.28
2023-04-16T10:34:43.171Z,101317.03
2023-04-16T10:37:46.415Z,101323.09
2023-04-16T10:40:48.519Z,101323.94
2023-04-16T10:43:51.706Z,101327.69
2023-04-16T10:46:55.753Z,101321.38
2023-04-16T10:49:58.463Z,101332.47
2023-04-16T10:53:30.448Z,101320.03
2023-04-16T10:56:33.780Z,101328.78
2023-04-16T10:59:41.640Z,101324.94
2023-04-16T11:02:49.940Z,101320.97
2023-04-16T11:05:53.529Z,101331.03
2023-04-16T11:08:56.047Z,101321.19
2023-04-16T11:11:58.969Z,101322.03
2023-04-16T11:15:10.350Z,101316.34
2023-04-16T11:18:20.184Z,101315.09
2023-04-16T11:21:23.641Z,101310.28
2023-04-16T11:24:31.660Z,101317.06
2023-04-16T11:27:34.128Z,101317.41
2023-04-16T11:30:39.061Z,101320.31
2023-04-16T11:33:42.606Z,101324.09
2023-04-16T11:36:45.809Z,101324.00
2023-04-16T11:39:56.679Z,101316.66
2023-04-16T11:43:14.452Z,101317.91
2023-04-16T11:46:26.344Z,101327.69
2023-04-16T11:49:30.749Z,101332.91
2023-04-16T11:52:44.248Z,101326.97
2023-04-16T11:55:49.390Z,101320.63
2023-04-16T11:59:19.229Z,101328.84
2023-04-16T12:02:43.631Z,101334.53
2023-04-16T12:05:48.314Z,101326.06
2023-04-16T12:08:50.638Z,101329.91
2023-04-16T12:11:53.533Z,101321.41
2023-04-16T12:14:59.928Z,101320.97
2023-04-16T12:18:08.961Z,101310.28
2023-04-16T12:21:11.129Z,101313.59
2023-04-16T12:24:16.895Z,101320.34
2023-04-16T12:27:19.715Z,101320.72
2023-04-16T12:30:24.776Z,101333.09
2023-04-16T12:33:27.596Z,101327.97
2023-04-16T12:36:29.973Z,101317.47
2023-04-16T12:39:32.619Z,101325.84
2023-04-16T12:42:37.923Z,101316.78
2023-04-16T12:45:40.836Z,101325.78
2023-04-16T12:48:43.754Z,101320.13
2023-04-16T12:51:47.209Z,101318.38
2023-04-16T12:54:49.555Z,101304.53
2023-04-16T12:57:54.827Z,101300.72
2023-04-16T13:00:57.096Z,101286.00
2023-04-16T13:03:59.265Z,101294.94
2023-04-16T13:07:02.275Z,101288.09
2023-04-16T13:10:06.196Z,101292.47
2023-04-16T13:13:08.364Z,101290.72
2023-04-16T13:16:11.488Z,101286.50
2023-04-16T13:29:08.016Z,101289.91
2023-04-16T13:35:52.892Z,101310.47
2023-04-16T13:38:55.184Z,101317.53
2023-04-16T13:45:46.140Z,101304.56
2023-04-16T13:48:49.647Z,101306.28
2023-04-16T13:51:52.251Z,101319.03
2023-04-16T13:54:58.397Z,101297.97
2023-04-16T13:58:07.538Z,101306.19
2023-04-16T14:01:10.495Z,101306.13
2023-04-16T14:04:14.893Z,101310.16
2023-04-16T14:07:17.769Z,101312.66
2023-04-16T14:10:24.586Z,101310.97
2023-04-16T14:13:27.086Z,101312.03
2023-04-16T14:16:31.101Z,101302.81
2023-04-16T14:19:33.203Z,101292.69
2023-04-16T14:22:52.923Z,101297.09
2023-04-16T14:25:55.501Z,101277.84
2023-04-16T14:28:57.852Z,101291.06
2023-04-16T14:32:00.029Z,101290.06
2023-04-16T14:35:02.236Z,101289.63
2023-04-16T14:38:05.858Z,101296.94
2023-04-16T14:41:11.026Z,101291.06
2023-04-16T14:44:17.068Z,101300.47
2023-04-16T14:47:20.294Z,101307.75
2023-04-16T14:50:23.244Z,101309.00
2023-04-16T14:53:27.421Z,101304.69
2023-04-16T14:56:31.081Z,101307.88
2023-04-16T14:59:34.295Z,101313.16
2023-04-16T15:02:37.426Z,101312.97
2023-04-16T15:05:39.663Z,101324.31
2023-04-16T15:08:41.886Z,101321.78
2023-04-16T15:11:44.985Z,101320.75
2023-04-16T15:14:47.159Z,101326.38
2023-04-16T15:17:51.586Z,101309.69
2023-04-16T15:20:54.763Z,101311.66
2023-04-16T15:23:58.000Z,101294.50
2023-04-16T15:27:02.913Z,101292.41
2023-04-16T15:30:05.620Z,101304.91
2023-04-16T15:33:08.440Z,101316.78
2023-04-16T15:36:12.145Z,101321.84
2023-04-16T15:39:14.598Z,101327.66
2023-04-16T15:42:17.081Z,101315.50
2023-04-16T15:45:19.189Z,101315.00
2023-04-16T15:48:22.504Z,101322.53
2023-04-16T15:51:31.650Z,101311.84
2023-04-16T15:54:33.841Z,101319.44
2023-04-16T15:57:39.820Z,101315.22
2023-04-16T16:00:41.882Z,101322.16
2023-04-16T16:03:44.018Z,101318.88
2023-04-16T16:06:46.822Z,101324.19
2023-04-16T16:09:49.902Z,101332.47
2023-04-16T16:12:53.195Z,101326.66
2023-04-16T16:15:55.516Z,101317.09
2023-04-16T16:18:57.977Z,101313.59
2023-04-16T16:22:32.522Z,101319.59
2023-04-16T16:25:30.409Z,101316.31
2023-04-16T16:28:32.927Z,101318.75
2023-04-16T16:31:36.334Z,101338.59
2023-04-16T16:34:39.289Z,101327.25
2023-04-16T16:37:41.656Z,101332.00
2023-04-16T16:41:41.522Z,101322.22
2023-04-16T16:48:39.744Z,101334.56
2023-04-16T16:51:54.585Z,101338.78
2023-04-16T16:54:57.015Z,101333.56
2023-04-16T16:58:03.281Z,101329.72
2023-04-16T17:01:32.576Z,101324.06
2023-04-16T17:04:36.025Z,101339.28
2023-04-16T17:07:39.244Z,101344.91
2023-04-16T17:10:42.996Z,101347.16
2023-04-16T17:13:48.652Z,101351.59
2023-04-16T17:16:52.089Z,101356.56
2023-04-16T17:19:58.063Z,101356.94
2023-04-16T17:23:10.241Z,101345.09
2023-04-16T17:26:23.154Z,101348.38
2023-04-16T17:29:37.789Z,101362.84
2023-04-16T17:32:47.097Z,101355.69
2023-04-16T17:36:10.840Z,101363.75
2023-04-16T17:39:18.006Z,101367.34
2023-04-16T17:46:04.383Z,101361.00
2023-04-16T17:49:08.188Z,101359.19
2023-04-16T17:52:10.753Z,101367.84
2023-04-16T17:55:24.851Z,101365.03
2023-04-16T17:58:39.688Z,101363.59
2023-04-16T18:01:53.083Z,101366.13
2023-04-16T18:05:09.969Z,101368.63
2023-04-16T18:08:38.276Z,101374.34
2023-04-16T18:11:46.164Z,101368.25
2023-04-16T18:14:51.534Z,101340.28
2023-04-16T18:17:57.422Z,101354.34
2023-04-16T18:21:00.132Z,101347.97
2023-04-16T18:24:08.476Z,101367.84
2023-04-16T18:27:10.759Z,101366.75
2023-04-16T18:30:22.920Z,101377.25
2023-04-16T18:33:55.290Z,101364.25
2023-04-16T18:37:00.994Z,101353.69
2023-04-16T18:40:07.671Z,101352.59
2023-04-16T18:43:14.763Z,101351.56
2023-04-16T18:46:18.958Z,101349.88
2023-04-16T18:49:21.301Z,101350.88
2023-04-16T18:52:23.758Z,101358.41
2023-04-16T18:55:30.388Z,101348.56
2023-04-16T18:58:59.326Z,101350.06
2023-04-16T19:02:04.913Z,101347.72
2023-04-16T19:05:12.419Z,101336.38
2023-04-16T19:08:18.805Z,101352.53
2023-04-16T19:11:22.141Z,101350.81
2023-04-16T19:14:27.109Z,101355.63
2023-04-16T19:17:32.523Z,101356.84
2023-04-16T19:20:40.346Z,101349.66
2023-04-16T19:23:42.879Z,101346.25
2023-04-16T19:26:45.946Z,101335.94
2023-04-16T19:29:48.283Z,101351.69
2023-04-16T19:32:52.206Z,101351.41
2023-04-16T19:35:55.305Z,101353.09
2023-04-16T19:38:57.493Z,101353.03
2023-04-16T19:42:00.132Z,101345.97
2023-04-16T19:45:04.083Z,101347.00
2023-04-16T19:48:07.003Z,101345.34
2023-04-16T19:51:09.252Z,101343.63
2023-04-16T19:54:11.588Z,101340.66
2023-04-16T19:57:14.400Z,101333.22
2023-04-16T20:00:27.879Z,101330.63
2023-04-16T20:03:39.263Z,101334.91
2023-04-16T20:06:41.464Z,101333.13
2023-04-16T20:09:44.731Z,101341.25
2023-04-16T20:12:47.157Z,101343.31
2023-04-16T20:15:55.153Z,101330.38
2023-04-16T20:19:03.606Z,101336.09
2023-04-16T20:22:07.549Z,101345.94
2023-04-16T20:25:11.877Z,101340.41
2023-04-16T20:28:19.389Z,101338.53
2023-04-16T20:31:23.892Z,101344.06
2023-04-16T20:34:26.804Z,101339.59
2023-04-16T20:37:29.742Z,101332.94
2023-04-16T20:40:33.005Z,101324.78
2023-04-16T20:43:38.995Z,101318.97
2023-04-16T20:46:42.335Z,101325.69
2023-04-16T20:49:47.514Z,101326.75
2023-04-16T20:52:51.866Z,101312.19
2023-04-16T20:56:01.558Z,101324.03
2023-04-16T20:59:04.559Z,101314.91
2023-04-16T21:02:07.463Z,101316.72
2023-04-16T21:05:14.127Z,101324.13
2023-04-16T21:08:22.600Z,101317.00
2023-04-16T21:11:24.813Z,101314.56
2023-04-16T21:14:26.884Z,101309.97
2023-04-16T21:17:29.132Z,101309.25
2023-04-16T21:20:31.923Z,101305.53
2023-04-16T21:23:35.720Z,101297.44
2023-04-16T21:26:38.284Z,101297.47
2023-04-16T21:29:40.689Z,101296.00
2023-04-16T21:32:43.051Z,101285.09
2023-04-16T21:35:51.610Z,101291.00
2023-04-16T21:38:56.585Z,101284.25
2023-04-16T21:41:59.163Z,101272.31
2023-04-16T21:45:01.839Z,101278.19
2023-04-16T21:48:05.236Z,101280.47
2023-04-16T21:51:10.697Z,101288.03
2023-04-16T21:54:13.533Z,101281.09
2023-04-16T21:57:15.802Z,101288.44
2023-04-16T22:00:18.481Z,101280.81
2023-04-16T22:03:26.984Z,101287.03
2023-04-16T22:06:29.384Z,101280.91
2023-04-16T22:09:32.693Z,101288.22
2023-04-16T22:12:38.320Z,101298.66
2023-04-16T22:15:41.325Z,101295.06
2023-04-16T22:18:43.665Z,101298.38
2023-04-16T22:21:48.532Z,101288.25
2023-04-16T22:24:50.965Z,101299.59
2023-04-16T22:27:53.296Z,101293.91
2023-04-16T22:30:56.618Z,101298.97
2023-04-16T22:33:59.815Z,101303.75
2023-04-16T22:37:03.845Z,101298.50
2023-04-16T22:40:11.175Z,101295.13
2023-04-16T22:43:13.272Z,101298.91
2023-04-16T22:46:15.361Z,101285.44
2023-04-16T22:49:17.648Z,101290.22
2023-04-16T22:52:19.846Z,101290.16
2023-04-16T22:55:22.240Z,101292.03
2023-04-16T22:58:25.037Z,101289.44
2023-04-16T23:01:27.385Z,101291.50
2023-04-16T23:04:29.829Z,101288.78
2023-04-16T23:07:32.606Z,101285.88
2023-04-16T23:10:34.904Z,101287.94
2023-04-16T23:13:38.902Z,101279.56
2023-04-16T23:16:42.675Z,101272.56
2023-04-16T23:19:44.852Z,101278.50
2023-04-16T23:22:48.140Z,101275.88
2023-04-16T23:25:53.539Z,101272.56
2023-04-16T23:28:57.769Z,101269.84
2023-04-16T23:32:00.159Z,101276.88
2023-04-16T23:35:02.379Z,101276.41
2023-04-16T23:38:04.577Z,101274.38
2023-04-16T23:41:07.233Z,101285.31
2023-04-16T23:44:09.538Z,101284.84
2023-04-16T23:47:11.852Z,101281.78
2023-04-16T23:50:16.335Z,101288.84
2023-04-16T23:53:18.906Z,101285.53
2023-04-16T23:56:21.345Z,101273.56
2023-04-16T23:59:24.790Z,101278.13
